Time;durP1;ratioP1;P1;durP2;ratioP2;P2;SDS_P1;SDS_P2;PMS_P1;PMS_P2;Temp;Humidity;BMP_temperature;BMP_pressure;BME280_temperature;BME280_humidity;BME280_pressure;Samples;Min_cycle;Max_cycle;Signal;HPM_P1;HPM_P2
2022/12/25 00:00:25;;;;;;;177.55;44.92;;;;;;;;;;5079216;28;20046;-67
2022/12/25 00:02:52;;;;;;;148.68;41.17;;;;;;;;;;5096279;28;20032;-67
2022/12/25 00:05:18;;;;;;;165.27;39.97;;;;;;;;;;5093108;28;20040;-67
2022/12/25 00:07:44;;;;;;;155.00;38.25;;;;;;;;;;5096598;28;20043;-67
2022/12/25 00:10:10;;;;;;;145.07;40.15;;;;;;;;;;5097981;28;20134;-67
2022/12/25 00:12:36;;;;;;;142.15;39.17;;;;;;;;;;5094607;28;20051;-67
2022/12/25 00:15:03;;;;;;;141.90;37.83;;;;;;;;;;5095811;28;20574;-67
2022/12/25 00:17:29;;;;;;;168.50;41.00;;;;;;;;;;5086636;28;20131;-67
2022/12/25 00:19:55;;;;;;;148.48;38.30;;;;;;;;;;5073802;28;20047;-67
2022/12/25 00:22:21;;;;;;;159.27;40.35;;;;;;;;;;5083960;28;20057;-67
2022/12/25 00:24:49;;;;;;;149.10;37.97;;;;;;;;;;5087019;28;20052;-67
2022/12/25 00:27:15;;;;;;;163.35;39.28;;;;;;;;;;5080732;28;20040;-67
2022/12/25 00:29:41;;;;;;;142.75;37.97;;;;;;;;;;5091864;28;20039;-67
2022/12/25 00:32:08;;;;;;;124.05;35.55;;;;;;;;;;5093835;28;20047;-67
2022/12/25 00:34:34;;;;;;;135.70;34.50;;;;;;;;;;5094564;28;20364;-67
2022/12/25 00:37:00;;;;;;;149.95;39.08;;;;;;;;;;5093383;28;20487;-67
2022/12/25 00:39:26;;;;;;;150.85;37.22;;;;;;;;;;5075243;28;20048;-67
2022/12/25 00:44:37;;;;;;;143.07;35.10;;;;;;;;;;5094075;28;20116;-67
2022/12/25 00:47:03;;;;;;;148.48;34.70;;;;;;;;;;5094791;28;20059;-67
2022/12/25 00:49:29;;;;;;;126.45;34.17;;;;;;;;;;5072988;28;20060;-67
2022/12/25 00:51:56;;;;;;;138.85;33.00;;;;;;;;;;5078936;28;20071;-67
2022/12/25 00:54:22;;;;;;;128.95;33.33;;;;;;;;;;5094214;28;20040;-67
2022/12/25 00:56:48;;;;;;;133.02;32.65;;;;;;;;;;5096374;28;20031;-67
2022/12/25 00:59:14;;;;;;;148.15;34.80;;;;;;;;;;5094307;28;20477;-67
2022/12/25 01:01:41;;;;;;;125.93;31.17;;;;;;;;;;5096652;28;20776;-67
2022/12/25 01:04:08;;;;;;;138.50;33.53;;;;;;;;;;5095581;28;20136;-67
2022/12/25 01:06:34;;;;;;;148.98;32.95;;;;;;;;;;5097270;28;20584;-67
2022/12/25 01:11:45;;;;;;;154.60;33.42;;;;;;;;;;5099163;28;20047;-67
2022/12/25 01:14:11;;;;;;;145.32;31.00;;;;;;;;;;5096745;28;20042;-67
2022/12/25 01:16:37;;;;;;;137.07;32.70;;;;;;;;;;5093327;28;20275;-67
2022/12/25 01:19:04;;;;;;;130.27;32.75;;;;;;;;;;5076152;28;20487;-67
2022/12/25 01:21:30;;;;;;;142.13;34.58;;;;;;;;;;5095658;28;20057;-67
2022/12/25 01:23:56;;;;;;;157.60;33.30;;;;;;;;;;5080705;28;20039;-67
2022/12/25 01:26:23;;;;;;;149.88;33.88;;;;;;;;;;5092940;28;20055;-67
2022/12/25 01:28:50;;;;;;;120.45;32.50;;;;;;;;;;5097880;28;20545;-67
2022/12/25 01:31:17;;;;;;;147.13;32.95;;;;;;;;;;5077924;28;20055;-67
2022/12/25 01:33:44;;;;;;;152.57;33.80;;;;;;;;;;5075566;28;20399;-67
2022/12/25 01:36:15;;;;;;;157.80;33.17;;;;;;;;;;5093444;28;20048;-67
2022/12/25 01:38:42;;;;;;;157.63;33.63;;;;;;;;;;5075728;28;20108;-67
2022/12/25 01:41:09;;;;;;;155.63;33.80;;;;;;;;;;5077413;28;20101;-67
2022/12/25 01:43:35;;;;;;;148.00;36.17;;;;;;;;;;5076665;28;20047;-67
2022/12/25 01:46:02;;;;;;;161.20;34.78;;;;;;;;;;5099140;28;20051;-67
2022/12/25 01:48:32;;;;;;;152.40;33.95;;;;;;;;;;5094031;28;20055;-67
2022/12/25 01:51:01;;;;;;;144.65;32.95;;;;;;;;;;5077309;28;20071;-67
2022/12/25 01:53:27;;;;;;;138.85;33.67;;;;;;;;;;5092803;28;20039;-67
2022/12/25 01:55:55;;;;;;;136.70;35.97;;;;;;;;;;5075322;28;20549;-67
2022/12/25 01:58:22;;;;;;;150.10;35.40;;;;;;;;;;5058369;28;20051;-67
2022/12/25 02:00:48;;;;;;;128.30;35.63;;;;;;;;;;5092652;28;20475;-67
2022/12/25 02:03:14;;;;;;;146.80;37.85;;;;;;;;;;5089364;28;20059;-67
2022/12/25 02:05:40;;;;;;;139.77;38.97;;;;;;;;;;5095181;28;20043;-67
2022/12/25 02:08:09;;;;;;;158.18;41.45;;;;;;;;;;5104042;28;20040;-67
2022/12/25 02:10:35;;;;;;;142.85;37.67;;;;;;;;;;5103938;28;20562;-67
2022/12/25 02:13:02;;;;;;;137.35;40.25;;;;;;;;;;5098964;28;20483;-67
2022/12/25 02:15:34;;;;;;;142.80;40.33;;;;;;;;;;5102064;28;20100;-67
2022/12/25 02:18:05;;;;;;;146.52;40.20;;;;;;;;;;5097638;28;20043;-67
2022/12/25 02:20:35;;;;;;;129.15;39.95;;;;;;;;;;5087352;28;20071;-67
2022/12/25 02:23:20;;;;;;;164.85;43.25;;;;;;;;;;5099867;28;20043;-67
2022/12/25 02:25:58;;;;;;;165.27;44.80;;;;;;;;;;5079022;28;20054;-67
2022/12/25 02:28:27;;;;;;;156.23;43.45;;;;;;;;;;5083573;28;20050;-67
2022/12/25 02:30:58;;;;;;;151.85;46.17;;;;;;;;;;5082467;28;20055;-67
2022/12/25 02:36:16;;;;;;;151.75;45.85;;;;;;;;;;5078316;28;20043;-67
2022/12/25 02:39:56;;;;;;;154.25;45.25;;;;;;;;;;5077066;28;20556;-67
2022/12/25 02:41:29;;;;;;;161.18;48.85;;;;;;;;;;5100607;28;20063;-66
2022/12/25 03:11:53;;;;;;;150.15;45.72;;;;;;;;;;5097587;28;20177;-67
2022/12/25 03:17:05;;;;;;;146.43;43.05;;;;;;;;;;5096004;28;20036;-67
2022/12/25 03:27:55;;;;;;;149.13;46.10;;;;;;;;;;5098083;28;20052;-67
2022/12/25 03:33:13;;;;;;;146.05;45.58;;;;;;;;;;5099326;28;20043;-67
2022/12/25 03:35:47;;;;;;;158.20;47.50;;;;;;;;;;5096323;28;20494;-67
2022/12/25 03:47:19;;;;;;;162.05;50.72;;;;;;;;;;5094270;28;20698;-67
2022/12/25 04:36:30;;;;;;;181.00;50.28;;;;;;;;;;5085617;27;20060;-67
2022/12/25 04:38:56;;;;;;;162.23;49.78;;;;;;;;;;5088779;28;20482;-67
2022/12/25 04:41:22;;;;;;;185.48;51.13;;;;;;;;;;5093979;28;20047;-67
2022/12/25 04:43:48;;;;;;;166.95;49.10;;;;;;;;;;5096442;28;20051;-67
2022/12/25 04:46:14;;;;;;;162.50;48.38;;;;;;;;;;5094704;28;20104;-67
2022/12/25 04:48:40;;;;;;;176.13;49.65;;;;;;;;;;5096364;28;20063;-67
2022/12/25 04:51:12;;;;;;;162.55;50.53;;;;;;;;;;5098428;28;20050;-67
2022/12/25 04:53:38;;;;;;;163.32;50.85;;;;;;;;;;5094740;28;20048;-67
2022/12/25 04:56:04;;;;;;;166.65;48.13;;;;;;;;;;5094689;28;20552;-67
2022/12/25 04:58:31;;;;;;;173.38;51.90;;;;;;;;;;5076385;28;20108;-67
2022/12/25 05:00:59;;;;;;;160.13;49.53;;;;;;;;;;5092495;28;20046;-67
2022/12/25 05:03:25;;;;;;;158.93;47.28;;;;;;;;;;5093159;28;20482;-67
2022/12/25 05:05:51;;;;;;;150.95;47.92;;;;;;;;;;5096728;28;20085;-68
2022/12/25 05:08:17;;;;;;;154.63;46.80;;;;;;;;;;5091230;28;20039;-68
2022/12/25 05:10:43;;;;;;;161.05;48.53;;;;;;;;;;5093881;28;20047;-68
2022/12/25 05:13:10;;;;;;;159.27;46.85;;;;;;;;;;5077622;28;21439;-67
2022/12/25 05:15:39;;;;;;;137.90;44.97;;;;;;;;;;5094169;28;20044;-67
2022/12/25 05:18:05;;;;;;;146.45;45.22;;;;;;;;;;5093615;28;20047;-67
2022/12/25 05:20:31;;;;;;;145.75;46.75;;;;;;;;;;5092928;28;20061;-67
2022/12/25 05:22:57;;;;;;;149.13;44.40;;;;;;;;;;5069950;28;20088;-67
2022/12/25 05:25:23;;;;;;;135.38;45.20;;;;;;;;;;5084448;28;20055;-67
2022/12/25 05:27:49;;;;;;;126.70;41.85;;;;;;;;;;5074946;28;20073;-67
2022/12/25 05:30:15;;;;;;;123.85;42.80;;;;;;;;;;5101955;28;20044;-67
2022/12/25 05:32:42;;;;;;;141.25;44.70;;;;;;;;;;5098770;28;20654;-67
2022/12/25 05:35:08;;;;;;;133.15;43.72;;;;;;;;;;5076254;28;20044;-68
2022/12/25 05:37:35;;;;;;;134.75;43.42;;;;;;;;;;5094816;28;20062;-68
2022/12/25 05:40:01;;;;;;;144.13;44.85;;;;;;;;;;5095121;28;20402;-68
2022/12/25 05:42:27;;;;;;;119.10;43.58;;;;;;;;;;5098673;28;20055;-67
2022/12/25 05:44:54;;;;;;;147.40;46.05;;;;;;;;;;5078934;28;20467;-68
2022/12/25 05:47:20;;;;;;;146.20;44.78;;;;;;;;;;5098482;28;20035;-68
2022/12/25 05:49:46;;;;;;;154.63;46.20;;;;;;;;;;5080278;28;20039;-67
2022/12/25 05:52:12;;;;;;;144.35;45.97;;;;;;;;;;5100138;28;20028;-67
2022/12/25 05:54:38;;;;;;;145.20;45.33;;;;;;;;;;5083991;28;20487;-67
2022/12/25 05:57:05;;;;;;;149.23;46.33;;;;;;;;;;5093844;28;20525;-67
2022/12/25 05:59:32;;;;;;;158.98;46.35;;;;;;;;;;5077027;28;20547;-67
2022/12/25 06:01:58;;;;;;;128.63;44.15;;;;;;;;;;5092593;28;20063;-67
2022/12/25 06:04:25;;;;;;;156.15;44.85;;;;;;;;;;5098100;28;20039;-68
2022/12/25 06:06:51;;;;;;;141.82;45.10;;;;;;;;;;5096179;28;20093;-68
2022/12/25 06:09:18;;;;;;;145.80;45.38;;;;;;;;;;5096924;28;20036;-67
2022/12/25 06:11:44;;;;;;;143.85;45.67;;;;;;;;;;5095868;28;20044;-68
2022/12/25 06:14:12;;;;;;;156.02;46.03;;;;;;;;;;5098280;28;20885;-68
2022/12/25 06:16:38;;;;;;;136.02;43.00;;;;;;;;;;5097194;28;21013;-68
2022/12/25 06:19:04;;;;;;;126.18;41.10;;;;;;;;;;5094703;28;20391;-67
2022/12/25 06:21:30;;;;;;;131.15;42.63;;;;;;;;;;5099510;28;20058;-67
2022/12/25 06:23:56;;;;;;;140.10;44.08;;;;;;;;;;5098579;28;20044;-67
2022/12/25 06:26:22;;;;;;;129.18;43.20;;;;;;;;;;5076082;28;20052;-67
2022/12/25 06:28:49;;;;;;;121.70;43.80;;;;;;;;;;5092369;28;20043;-68
2022/12/25 06:31:16;;;;;;;125.68;43.08;;;;;;;;;;5076408;28;20603;-68
2022/12/25 06:33:42;;;;;;;117.15;42.53;;;;;;;;;;5099330;28;20100;-68
2022/12/25 06:36:10;;;;;;;125.65;42.05;;;;;;;;;;5076263;28;20048;-67
2022/12/25 06:38:36;;;;;;;137.40;44.75;;;;;;;;;;5097465;28;20355;-67
2022/12/25 06:41:04;;;;;;;129.65;41.17;;;;;;;;;;5075382;28;20568;-67
2022/12/25 06:43:30;;;;;;;118.28;42.58;;;;;;;;;;5096440;28;20086;-68
2022/12/25 06:45:56;;;;;;;137.98;43.95;;;;;;;;;;5097676;28;20052;-67
2022/12/25 06:48:22;;;;;;;124.38;43.50;;;;;;;;;;5097061;28;20093;-67
2022/12/25 06:50:48;;;;;;;133.00;44.92;;;;;;;;;;5099714;28;20057;-67
2022/12/25 06:53:14;;;;;;;122.65;41.88;;;;;;;;;;5095766;28;20364;-67
2022/12/25 06:55:41;;;;;;;114.40;41.70;;;;;;;;;;5101249;28;20043;-67
2022/12/25 06:58:07;;;;;;;111.05;41.58;;;;;;;;;;5081144;28;20108;-68
2022/12/25 07:00:33;;;;;;;105.10;42.30;;;;;;;;;;5095197;28;20047;-65
2022/12/25 07:02:59;;;;;;;109.68;41.25;;;;;;;;;;5097076;28;20078;-68
2022/12/25 07:05:25;;;;;;;103.82;41.38;;;;;;;;;;5097377;28;20036;-68
2022/12/25 07:07:51;;;;;;;106.00;40.67;;;;;;;;;;5094398;28;20067;-67
2022/12/25 07:10:17;;;;;;;90.82;39.25;;;;;;;;;;5094981;28;20045;-67
2022/12/25 07:12:44;;;;;;;99.00;37.50;;;;;;;;;;5075870;28;20077;-67
2022/12/25 07:15:10;;;;;;;86.57;36.42;;;;;;;;;;5096528;28;20052;-68
2022/12/25 07:17:36;;;;;;;98.50;38.08;;;;;;;;;;5076800;28;20056;-67
2022/12/25 07:20:02;;;;;;;96.00;37.40;;;;;;;;;;5079599;28;20274;-66
2022/12/25 07:22:29;;;;;;;103.78;36.40;;;;;;;;;;5098215;28;20498;-67
2022/12/25 07:24:55;;;;;;;101.10;35.67;;;;;;;;;;5073403;28;20197;-68
2022/12/25 07:27:21;;;;;;;94.80;35.88;;;;;;;;;;5094670;28;20462;-67
2022/12/25 07:29:47;;;;;;;88.63;35.90;;;;;;;;;;5102578;28;20051;-67
2022/12/25 07:32:13;;;;;;;100.75;38.95;;;;;;;;;;5078731;28;20032;-67
2022/12/25 07:34:39;;;;;;;96.78;36.72;;;;;;;;;;5096919;28;20112;-68
2022/12/25 07:37:06;;;;;;;95.25;37.25;;;;;;;;;;5086109;28;20091;-66
2022/12/25 07:39:34;;;;;;;91.18;36.08;;;;;;;;;;5095569;28;20106;-69
2022/12/25 07:42:00;;;;;;;94.10;34.53;;;;;;;;;;5097829;28;20063;-67
2022/12/25 07:44:26;;;;;;;96.15;35.00;;;;;;;;;;5081461;28;20146;-68
2022/12/25 07:46:52;;;;;;;90.80;34.03;;;;;;;;;;5082866;28;20051;-68
2022/12/25 07:49:18;;;;;;;88.43;34.65;;;;;;;;;;5081567;28;20047;-68
2022/12/25 07:51:44;;;;;;;85.03;33.97;;;;;;;;;;5102326;28;20046;-68
2022/12/25 07:54:11;;;;;;;94.28;34.55;;;;;;;;;;5101127;28;20043;-68
2022/12/25 07:56:37;;;;;;;73.65;31.88;;;;;;;;;;5082779;28;20051;-68
2022/12/25 07:59:03;;;;;;;76.50;32.33;;;;;;;;;;5084739;28;20131;-68
2022/12/25 08:01:29;;;;;;;67.85;30.20;;;;;;;;;;5100447;28;20131;-68
2022/12/25 08:03:56;;;;;;;69.07;28.63;;;;;;;;;;5099833;28;20042;-68
2022/12/25 08:06:25;;;;;;;65.10;28.92;;;;;;;;;;5081278;28;20123;-68
2022/12/25 08:08:51;;;;;;;70.32;30.67;;;;;;;;;;5104250;28;20048;-68
2022/12/25 08:11:18;;;;;;;63.80;27.98;;;;;;;;;;5087438;28;20075;-68
2022/12/25 08:13:44;;;;;;;71.15;30.80;;;;;;;;;;5105344;28;20043;-68
2022/12/25 08:16:10;;;;;;;61.50;29.63;;;;;;;;;;5111715;28;20044;-68
2022/12/25 08:18:37;;;;;;;63.50;28.30;;;;;;;;;;5092173;28;20051;-68
2022/12/25 08:21:04;;;;;;;62.45;26.50;;;;;;;;;;5105916;28;20059;-67
2022/12/25 08:23:33;;;;;;;64.35;26.63;;;;;;;;;;5081525;28;20109;-67
2022/12/25 08:26:00;;;;;;;61.95;27.23;;;;;;;;;;5081905;28;20048;-68
2022/12/25 08:28:26;;;;;;;61.90;26.73;;;;;;;;;;5102215;28;20040;-68
2022/12/25 08:30:52;;;;;;;56.72;25.00;;;;;;;;;;5094945;28;20048;-68
2022/12/25 08:33:18;;;;;;;62.47;25.75;;;;;;;;;;5076672;28;20079;-68
2022/12/25 08:35:44;;;;;;;50.85;23.60;;;;;;;;;;5099262;28;20046;-68
2022/12/25 08:38:11;;;;;;;55.35;25.77;;;;;;;;;;5097543;28;20055;-76
2022/12/25 08:40:37;;;;;;;52.97;24.10;;;;;;;;;;5100614;28;20040;-67
2022/12/25 08:43:03;;;;;;;51.15;22.63;;;;;;;;;;5097080;28;20055;-67
2022/12/25 08:45:29;;;;;;;49.97;21.13;;;;;;;;;;5099728;28;20418;-66
2022/12/25 08:47:56;;;;;;;55.97;23.13;;;;;;;;;;5103792;28;20497;-67
2022/12/25 08:50:23;;;;;;;46.78;21.58;;;;;;;;;;5102768;28;20126;-67
2022/12/25 08:52:49;;;;;;;45.72;23.05;;;;;;;;;;5084227;28;20036;-67
2022/12/25 08:55:15;;;;;;;47.15;21.45;;;;;;;;;;5102994;28;20402;-67
2022/12/25 08:57:42;;;;;;;50.47;21.20;;;;;;;;;;5101522;28;20070;-67
2022/12/25 09:00:08;;;;;;;45.75;21.95;;;;;;;;;;5101517;28;20047;-67
2022/12/25 09:02:35;;;;;;;47.97;22.35;;;;;;;;;;5102689;28;20062;-67
2022/12/25 09:05:01;;;;;;;49.53;20.92;;;;;;;;;;5102860;28;20100;-67
2022/12/25 09:07:27;;;;;;;46.15;21.58;;;;;;;;;;5101654;28;20044;-67
2022/12/25 09:09:53;;;;;;;48.53;21.13;;;;;;;;;;5083398;28;20047;-67
2022/12/25 09:12:19;;;;;;;43.40;20.98;;;;;;;;;;5085504;28;20490;-67
2022/12/25 09:14:46;;;;;;;46.15;20.13;;;;;;;;;;5103275;28;20047;-67
2022/12/25 09:17:12;;;;;;;42.25;20.33;;;;;;;;;;5083846;28;20118;-67
2022/12/25 09:19:38;;;;;;;47.63;20.42;;;;;;;;;;5084047;28;20484;-67
2022/12/25 09:22:04;;;;;;;42.33;19.80;;;;;;;;;;5104411;28;20055;-67
2022/12/25 09:24:30;;;;;;;50.42;21.05;;;;;;;;;;5084844;28;20428;-67
2022/12/25 09:26:56;;;;;;;48.28;21.13;;;;;;;;;;5101903;28;20047;-67
2022/12/25 09:29:22;;;;;;;47.25;19.70;;;;;;;;;;5102782;28;20044;-67
2022/12/25 09:31:49;;;;;;;52.40;20.08;;;;;;;;;;5101668;28;20028;-67
2022/12/25 09:34:15;;;;;;;45.40;18.45;;;;;;;;;;5102764;28;20499;-67
2022/12/25 09:36:41;;;;;;;44.00;18.77;;;;;;;;;;5103071;28;20031;-67
2022/12/25 09:39:07;;;;;;;54.00;19.40;;;;;;;;;;5103232;28;20051;-67
2022/12/25 09:41:37;;;;;;;39.70;18.65;;;;;;;;;;5103221;28;20047;-67
2022/12/25 09:44:05;;;;;;;40.72;19.45;;;;;;;;;;5102532;28;20059;-67
2022/12/25 09:46:38;;;;;;;45.20;20.25;;;;;;;;;;5098596;28;20043;-67
2022/12/25 09:49:08;;;;;;;40.53;19.10;;;;;;;;;;5101560;28;20078;-66
2022/12/25 09:51:35;;;;;;;38.22;18.58;;;;;;;;;;5098099;28;20044;-67
2022/12/25 09:54:06;;;;;;;44.92;18.90;;;;;;;;;;5099944;28;20437;-66
2022/12/25 09:56:32;;;;;;;38.17;18.67;;;;;;;;;;5102849;28;20052;-66
2022/12/25 09:58:59;;;;;;;37.08;18.45;;;;;;;;;;5084741;28;20048;-66
2022/12/25 10:01:47;;;;;;;36.83;19.55;;;;;;;;;;5081005;28;20582;-66
2022/12/25 10:04:14;;;;;;;39.30;18.98;;;;;;;;;;5066079;28;20048;-66
2022/12/25 10:06:52;;;;;;;39.38;18.52;;;;;;;;;;5083087;28;20457;-66
2022/12/25 10:09:29;;;;;;;36.08;18.90;;;;;;;;;;5065640;28;20047;-66
2022/12/25 10:11:55;;;;;;;38.50;18.77;;;;;;;;;;5101957;28;20118;-66
2022/12/25 10:14:27;;;;;;;39.45;18.73;;;;;;;;;;5098118;28;20466;-66
2022/12/25 10:17:06;;;;;;;45.85;18.63;;;;;;;;;;5083464;28;20475;-66
2022/12/25 10:19:33;;;;;;;38.40;18.75;;;;;;;;;;5101712;28;20039;-66
2022/12/25 10:22:01;;;;;;;36.78;19.15;;;;;;;;;;5102559;28;20140;-66
2022/12/25 10:24:33;;;;;;;35.83;18.00;;;;;;;;;;5102292;28;20031;-66
2022/12/25 10:27:02;;;;;;;32.75;16.88;;;;;;;;;;5101077;28;20063;-66
2022/12/25 10:29:30;;;;;;;30.90;16.45;;;;;;;;;;5105379;28;20128;-66
2022/12/25 10:31:56;;;;;;;32.13;17.30;;;;;;;;;;5103444;28;20126;-66
2022/12/25 10:34:23;;;;;;;29.83;17.77;;;;;;;;;;5083996;28;20108;-66
2022/12/25 10:36:50;;;;;;;40.45;17.60;;;;;;;;;;5105069;28;20403;-66
2022/12/25 10:39:17;;;;;;;36.67;16.80;;;;;;;;;;5103975;28;20499;-66
2022/12/25 10:41:59;;;;;;;32.35;17.20;;;;;;;;;;5102681;28;20036;-66
2022/12/25 10:44:25;;;;;;;30.80;16.20;;;;;;;;;;5104768;28;20416;-66
2022/12/25 10:46:55;;;;;;;36.05;17.52;;;;;;;;;;5105551;28;20169;-66
2022/12/25 10:49:22;;;;;;;37.97;17.23;;;;;;;;;;5084885;28;20053;-66
2022/12/25 10:51:49;;;;;;;28.60;15.10;;;;;;;;;;5104404;28;20213;-66
2022/12/25 10:54:24;;;;;;;28.02;14.27;;;;;;;;;;5105486;28;20044;-66
2022/12/25 10:56:57;;;;;;;29.98;15.63;;;;;;;;;;5102908;28;20115;-66
2022/12/25 10:59:26;;;;;;;32.92;15.95;;;;;;;;;;5084618;28;20086;-66
2022/12/25 11:01:53;;;;;;;28.27;15.80;;;;;;;;;;5103999;28;20470;-67
2022/12/25 11:04:22;;;;;;;35.65;14.98;;;;;;;;;;5105691;28;20043;-66
2022/12/25 11:06:57;;;;;;;29.83;15.82;;;;;;;;;;5104553;28;20502;-67
2022/12/25 11:09:23;;;;;;;28.52;14.85;;;;;;;;;;5102445;28;20541;-66
2022/12/25 11:11:51;;;;;;;26.75;16.33;;;;;;;;;;5082160;28;20344;-67
2022/12/25 11:14:19;;;;;;;35.15;17.33;;;;;;;;;;5099780;28;20039;-66
2022/12/25 11:16:46;;;;;;;30.00;14.32;;;;;;;;;;5103447;28;20035;-66
2022/12/25 11:19:26;;;;;;;27.42;15.18;;;;;;;;;;5103149;28;20050;-66
2022/12/25 11:21:54;;;;;;;26.35;14.70;;;;;;;;;;5103972;28;20043;-66
2022/12/25 11:24:21;;;;;;;30.90;15.73;;;;;;;;;;5104151;28;20044;-66
2022/12/25 11:26:49;;;;;;;25.23;13.95;;;;;;;;;;5083811;28;20100;-66
2022/12/25 11:29:25;;;;;;;20.73;12.90;;;;;;;;;;5101663;28;20097;-66
2022/12/25 11:31:52;;;;;;;26.02;13.57;;;;;;;;;;5079662;28;20044;-66
2022/12/25 11:34:26;;;;;;;31.80;14.73;;;;;;;;;;5096541;28;20090;-66
2022/12/25 11:36:52;;;;;;;23.08;13.43;;;;;;;;;;5103246;28;20035;-67
2022/12/25 11:39:26;;;;;;;22.98;12.32;;;;;;;;;;5106242;28;20032;-67
2022/12/25 11:41:56;;;;;;;24.73;12.82;;;;;;;;;;5104551;28;20101;-66
2022/12/25 11:44:29;;;;;;;24.92;13.60;;;;;;;;;;5089233;28;20505;-67
2022/12/25 11:46:56;;;;;;;22.42;12.90;;;;;;;;;;5108425;28;20321;-67
2022/12/25 11:49:22;;;;;;;24.73;12.43;;;;;;;;;;5103685;28;20048;-67
2022/12/25 11:51:49;;;;;;;22.15;12.77;;;;;;;;;;5087370;28;20055;-67
2022/12/25 11:54:17;;;;;;;24.20;12.93;;;;;;;;;;5085506;28;20035;-67
2022/12/25 11:56:43;;;;;;;25.05;12.65;;;;;;;;;;5085864;28;20132;-67
2022/12/25 11:59:24;;;;;;;26.05;11.20;;;;;;;;;;5107508;28;20065;-67
2022/12/25 12:01:54;;;;;;;18.13;12.07;;;;;;;;;;5108131;28;20046;-67
2022/12/25 12:04:20;;;;;;;22.30;11.60;;;;;;;;;;5083244;28;20031;-66
2022/12/25 12:06:55;;;;;;;23.35;11.77;;;;;;;;;;5104409;28;20046;-67
2022/12/25 12:09:21;;;;;;;21.77;12.45;;;;;;;;;;5085152;28;20159;-67
2022/12/25 12:11:53;;;;;;;19.58;12.07;;;;;;;;;;5082763;28;20051;-67
2022/12/25 12:14:29;;;;;;;25.02;12.73;;;;;;;;;;5081584;28;20355;-67
2022/12/25 12:16:55;;;;;;;20.17;12.63;;;;;;;;;;5082387;28;20054;-67
2022/12/25 12:19:26;;;;;;;25.90;12.63;;;;;;;;;;5099949;28;20044;-67
2022/12/25 12:21:53;;;;;;;23.27;12.13;;;;;;;;;;5100973;28;20036;-67
2022/12/25 12:24:21;;;;;;;23.70;11.77;;;;;;;;;;5102843;28;20054;-67
2022/12/25 12:26:47;;;;;;;17.90;11.48;;;;;;;;;;5098410;28;20417;-67
2022/12/25 12:29:24;;;;;;;20.77;12.35;;;;;;;;;;5094935;28;20059;-67
2022/12/25 12:31:51;;;;;;;22.67;11.38;;;;;;;;;;5082839;28;20364;-67
2022/12/25 12:34:23;;;;;;;20.02;11.63;;;;;;;;;;5080873;28;20077;-67
2022/12/25 12:36:50;;;;;;;20.80;11.77;;;;;;;;;;5080474;28;20057;-67
2022/12/25 12:39:22;;;;;;;21.88;12.98;;;;;;;;;;5103453;28;20050;-67
2022/12/25 12:41:48;;;;;;;19.20;11.13;;;;;;;;;;5099400;28;20055;-67
2022/12/25 12:44:16;;;;;;;23.08;11.93;;;;;;;;;;5093638;28;20043;-67
2022/12/25 12:46:50;;;;;;;22.73;11.02;;;;;;;;;;5095551;28;20039;-68
2022/12/25 12:49:22;;;;;;;26.05;13.25;;;;;;;;;;5080434;28;20060;-68
2022/12/25 12:51:49;;;;;;;21.48;11.98;;;;;;;;;;5099141;28;20395;-65
2022/12/25 12:54:19;;;;;;;22.00;11.98;;;;;;;;;;5079857;28;20506;-65
2022/12/25 12:56:55;;;;;;;24.50;11.27;;;;;;;;;;5095041;28;20054;-66
2022/12/25 12:59:21;;;;;;;22.73;12.30;;;;;;;;;;5093589;28;20048;-66
2022/12/25 13:01:51;;;;;;;23.65;13.43;;;;;;;;;;5096292;28;20164;-66
2022/12/25 13:04:28;;;;;;;25.45;12.20;;;;;;;;;;5100007;28;20127;-66
2022/12/25 13:07:03;;;;;;;23.20;11.95;;;;;;;;;;5101106;28;20387;-67
2022/12/25 13:09:44;;;;;;;25.38;12.98;;;;;;;;;;5097371;28;20094;-66
2022/12/25 13:12:13;;;;;;;24.17;12.48;;;;;;;;;;5090163;28;20041;-66
2022/12/25 13:14:44;;;;;;;23.73;11.65;;;;;;;;;;5099654;28;20043;-66
2022/12/25 13:17:10;;;;;;;24.67;12.32;;;;;;;;;;5059081;28;20039;-66
2022/12/25 13:19:36;;;;;;;22.50;11.57;;;;;;;;;;5095279;28;20039;-67
2022/12/25 13:22:04;;;;;;;22.10;12.32;;;;;;;;;;5079193;28;20067;-66
2022/12/25 13:24:32;;;;;;;26.92;13.07;;;;;;;;;;5080983;28;20051;-66
2022/12/25 13:26:59;;;;;;;22.73;12.75;;;;;;;;;;5082168;28;20048;-66
2022/12/25 13:29:29;;;;;;;24.27;13.05;;;;;;;;;;5099018;28;20445;-66
2022/12/25 13:31:57;;;;;;;25.58;13.13;;;;;;;;;;5081983;28;20071;-66
2022/12/25 13:34:28;;;;;;;22.92;13.23;;;;;;;;;;5082080;28;20157;-67
2022/12/25 13:36:55;;;;;;;24.95;12.85;;;;;;;;;;5085955;28;20043;-66
2022/12/25 13:39:23;;;;;;;23.52;12.48;;;;;;;;;;5082142;28;20048;-66
2022/12/25 13:42:04;;;;;;;22.42;11.88;;;;;;;;;;5099065;28;20636;-66
2022/12/25 13:44:40;;;;;;;23.20;11.77;;;;;;;;;;5078008;28;20396;-66
2022/12/25 13:47:15;;;;;;;26.58;12.82;;;;;;;;;;5097889;28;20066;-66
2022/12/25 13:49:41;;;;;;;25.00;12.05;;;;;;;;;;5100029;28;20062;-67
2022/12/25 13:52:10;;;;;;;26.13;13.65;;;;;;;;;;5102356;28;20129;-67
2022/12/25 13:54:36;;;;;;;24.20;12.02;;;;;;;;;;5092576;28;20044;-66
2022/12/25 13:57:07;;;;;;;20.13;13.93;;;;;;;;;;5097732;28;20043;-66
2022/12/25 13:59:33;;;;;;;30.00;14.23;;;;;;;;;;5099587;28;20036;-66
2022/12/25 14:01:59;;;;;;;21.00;12.27;;;;;;;;;;5084628;28;20047;-66
2022/12/25 14:04:25;;;;;;;29.85;13.48;;;;;;;;;;5086506;28;20087;-66
2022/12/25 14:06:52;;;;;;;21.80;11.98;;;;;;;;;;5103586;28;20074;-67
2022/12/25 14:09:18;;;;;;;23.50;12.82;;;;;;;;;;5102838;28;20134;-66
2022/12/25 14:11:46;;;;;;;24.42;12.75;;;;;;;;;;5099776;28;20086;-67
2022/12/25 14:14:16;;;;;;;21.38;11.85;;;;;;;;;;5104989;28;20179;-68
2022/12/25 14:16:44;;;;;;;25.08;13.13;;;;;;;;;;5106545;28;20032;-67
2022/12/25 14:19:20;;;;;;;24.17;12.80;;;;;;;;;;5104123;28;20505;-66
2022/12/25 14:21:51;;;;;;;24.17;12.25;;;;;;;;;;5087631;28;20036;-67
2022/12/25 14:24:19;;;;;;;24.83;12.95;;;;;;;;;;5101057;28;20056;-67
2022/12/25 14:26:45;;;;;;;28.88;12.95;;;;;;;;;;5103604;28;20031;-66
2022/12/25 14:29:14;;;;;;;29.73;14.45;;;;;;;;;;5104028;28;20062;-67
2022/12/25 14:31:41;;;;;;;27.92;12.68;;;;;;;;;;5103300;28;20104;-67
2022/12/25 14:34:11;;;;;;;25.15;13.32;;;;;;;;;;5104134;28;20086;-67
2022/12/25 14:36:38;;;;;;;24.98;13.77;;;;;;;;;;5098848;28;20043;-66
2022/12/25 14:39:06;;;;;;;24.55;12.77;;;;;;;;;;5105444;28;20036;-66
2022/12/25 14:41:36;;;;;;;21.35;13.70;;;;;;;;;;5086426;28;20108;-67
2022/12/25 14:44:05;;;;;;;31.73;14.30;;;;;;;;;;5106205;28;20044;-67
2022/12/25 14:46:32;;;;;;;24.58;13.60;;;;;;;;;;5103983;28;20051;-67
2022/12/25 14:49:00;;;;;;;29.30;13.05;;;;;;;;;;5082524;28;20055;-67
2022/12/25 14:51:26;;;;;;;24.23;12.82;;;;;;;;;;5101171;28;20058;-67
2022/12/25 14:53:54;;;;;;;21.42;12.50;;;;;;;;;;5103439;28;20074;-67
2022/12/25 14:56:20;;;;;;;24.73;13.38;;;;;;;;;;5102431;28;20109;-67
2022/12/25 14:58:49;;;;;;;20.45;12.00;;;;;;;;;;5079170;28;20126;-67
2022/12/25 15:01:20;;;;;;;19.10;11.35;;;;;;;;;;5098541;28;20130;-67
2022/12/25 15:03:47;;;;;;;23.55;13.40;;;;;;;;;;5086114;28;20035;-67
2022/12/25 15:06:18;;;;;;;22.00;13.00;;;;;;;;;;5095540;28;20046;-68
2022/12/25 15:08:54;;;;;;;19.30;12.20;;;;;;;;;;5082615;28;20036;-68
2022/12/25 15:11:21;;;;;;;21.40;12.48;;;;;;;;;;5082060;28;20052;-68
2022/12/25 15:13:47;;;;;;;28.75;13.15;;;;;;;;;;5099927;28;20170;-68
2022/12/25 15:16:15;;;;;;;23.75;13.10;;;;;;;;;;5101001;28;20096;-68
2022/12/25 15:18:43;;;;;;;19.65;11.60;;;;;;;;;;5100425;28;20059;-67
2022/12/25 15:21:15;;;;;;;19.27;11.38;;;;;;;;;;5101225;28;20045;-68
2022/12/25 15:23:41;;;;;;;17.90;12.07;;;;;;;;;;5100758;28;20522;-68
2022/12/25 15:26:09;;;;;;;18.90;12.15;;;;;;;;;;5098750;28;20044;-68
2022/12/25 15:28:35;;;;;;;25.00;12.57;;;;;;;;;;5100606;28;20402;-68
2022/12/25 15:31:01;;;;;;;18.83;12.27;;;;;;;;;;5100451;28;20043;-68
2022/12/25 15:33:27;;;;;;;23.88;13.50;;;;;;;;;;5101154;28;20062;-67
2022/12/25 15:35:54;;;;;;;23.60;13.85;;;;;;;;;;5099743;28;20044;-68
2022/12/25 15:38:20;;;;;;;20.58;12.98;;;;;;;;;;5101451;28;20047;-68
2022/12/25 15:40:46;;;;;;;23.42;13.95;;;;;;;;;;5101031;28;21227;-67
2022/12/25 15:43:14;;;;;;;24.65;14.05;;;;;;;;;;5081226;28;20051;-68
2022/12/25 15:45:40;;;;;;;21.40;13.85;;;;;;;;;;5098374;28;21251;-68
2022/12/25 15:48:06;;;;;;;23.38;13.38;;;;;;;;;;5083061;28;20043;-70
2022/12/25 15:50:35;;;;;;;26.88;13.95;;;;;;;;;;5100307;28;20058;-66
2022/12/25 15:53:01;;;;;;;20.60;12.70;;;;;;;;;;5101201;28;20111;-67
2022/12/25 15:55:28;;;;;;;24.42;14.80;;;;;;;;;;5101838;28;20035;-67
2022/12/25 15:57:54;;;;;;;20.25;13.43;;;;;;;;;;5100382;28;20048;-67
2022/12/25 16:00:24;;;;;;;21.10;13.13;;;;;;;;;;5101253;28;20918;-67